Time;durP1;ratioP1;P1;durP2;ratioP2;P2;SDS_P1;SDS_P2;PMS_P1;PMS_P2;Temp;Humidity;BMP_temperature;BMP_pressure;BME280_temperature;BME280_humidity;BME280_pressure;Samples;Min_cycle;Max_cycle;Signal;HPM_P1;HPM_P2
2022/09/03 00:01:13;;;;;;;6.63;3.40;;;;;;;16.34;91.63;94598.03;5133575;27;20196;-77
2022/09/03 00:03:47;;;;;;;4.53;3.08;;;;;;;16.27;91.79;94597.91;5132583;27;20201;-75
2022/09/03 00:06:18;;;;;;;4.88;3.13;;;;;;;16.30;91.52;94596.41;5133522;27;20261;-76
2022/09/03 00:08:50;;;;;;;5.82;3.40;;;;;;;16.35;91.79;94610.56;5134347;27;20684;-74
2022/09/03 00:11:23;;;;;;;6.15;3.40;;;;;;;16.28;91.61;94610.44;5133673;27;20225;-75
2022/09/03 00:13:55;;;;;;;6.28;3.42;;;;;;;16.29;91.82;94601.06;5134175;27;20186;-77
2022/09/03 00:16:26;;;;;;;6.82;3.90;;;;;;;16.34;91.87;94606.25;5133775;27;20276;-76
2022/09/03 00:18:58;;;;;;;6.45;3.58;;;;;;;16.33;91.58;94595.66;5133736;27;20605;-77
2022/09/03 00:21:35;;;;;;;5.80;3.40;;;;;;;16.34;91.56;94598.03;5133914;27;20190;-76
2022/09/03 00:24:06;;;;;;;6.43;3.65;;;;;;;16.39;91.08;94596.16;5133053;27;20589;-76
2022/09/03 00:26:35;;;;;;;5.90;3.38;;;;;;;16.35;90.75;94604.31;5133734;27;20291;-75
2022/09/03 00:29:08;;;;;;;4.63;2.78;;;;;;;16.31;90.82;94587.84;5133418;27;20556;-77
2022/09/03 00:31:41;;;;;;;9.73;3.60;;;;;;;16.30;91.47;94580.78;5113195;28;20243;-76
2022/09/03 00:34:15;;;;;;;6.60;3.63;;;;;;;16.38;91.02;94591.84;5112036;28;20273;-76
2022/09/03 00:36:45;;;;;;;6.28;3.88;;;;;;;16.37;91.14;94588.34;5112975;28;20189;-75
2022/09/03 00:39:15;;;;;;;8.05;3.75;;;;;;;16.27;91.56;94589.72;5112704;28;20205;-76
2022/09/03 00:41:58;;;;;;;6.82;3.95;;;;;;;16.34;91.38;94592.59;5111795;28;20266;-76
2022/09/03 00:44:47;;;;;;;7.85;4.20;;;;;;;16.34;91.75;94591.78;5112819;28;20189;-76
2022/09/03 00:47:23;;;;;;;6.90;4.15;;;;;;;16.32;91.48;94592.16;5123085;27;20215;-77
2022/09/03 00:50:01;;;;;;;7.13;3.58;;;;;;;16.37;91.59;94595.75;5132676;27;20575;-77
2022/09/03 00:52:45;;;;;;;8.88;4.22;;;;;;;16.43;91.86;94594.25;5132005;27;20635;-76
2022/09/03 00:55:25;;;;;;;8.98;3.60;;;;;;;16.32;91.62;94586.69;5133166;27;20189;-76
2022/09/03 00:58:07;;;;;;;8.35;4.20;;;;;;;16.35;92.51;94594.16;5133056;27;20199;-77
2022/09/03 01:00:35;;;;;;;5.15;3.75;;;;;;;16.45;91.84;94591.97;5132689;27;20651;-76
2022/09/03 01:03:07;;;;;;;4.65;3.45;;;;;;;16.37;91.02;94596.53;5132849;27;20201;-77
2022/09/03 01:05:58;;;;;;;6.90;4.07;;;;;;;16.39;91.54;94598.91;5131459;27;20637;-77
2022/09/03 01:08:44;;;;;;;6.07;3.38;;;;;;;16.28;91.01;94599.50;5132248;27;20197;-75
2022/09/03 01:11:26;;;;;;;8.43;3.40;;;;;;;16.23;90.86;94597.06;5131720;27;20311;-77
2022/09/03 01:14:02;;;;;;;4.90;3.38;;;;;;;16.18;91.08;94600.09;5132226;27;20253;-75
2022/09/03 01:16:38;;;;;;;4.70;3.63;;;;;;;16.10;91.37;94592.94;5132109;27;20206;-73
2022/09/03 01:19:25;;;;;;;7.03;4.25;;;;;;;15.97;91.96;94594.25;5132316;27;20682;-77
2022/09/03 01:22:18;;;;;;;9.00;4.70;;;;;;;15.91;91.74;94590.22;5132281;27;20192;-76
2022/09/03 01:25:21;;;;;;;6.43;3.78;;;;;;;15.91;91.60;94601.16;5132107;27;20189;-77
2022/09/03 01:28:01;;;;;;;7.13;4.55;;;;;;;15.90;91.19;94600.38;5125185;27;20216;-76
2022/09/03 01:30:32;;;;;;;7.78;3.63;;;;;;;15.90;91.45;94599.56;5120443;27;20328;-77
2022/09/03 01:33:07;;;;;;;6.35;3.67;;;;;;;15.91;91.56;94612.88;5111867;28;20255;-76
2022/09/03 01:35:38;;;;;;;6.18;4.05;;;;;;;15.88;91.91;94615.53;5110798;28;20189;-76
2022/09/03 01:38:17;;;;;;;3.38;2.80;;;;;;;15.82;91.24;94620.53;5111550;28;20276;-76
2022/09/03 01:40:57;;;;;;;5.85;3.22;;;;;;;15.81;91.80;94618.16;5111355;28;20336;-77
2022/09/03 01:43:38;;;;;;;6.18;3.63;;;;;;;15.86;91.67;94620.56;5110871;28;20240;-76
2022/09/03 01:46:12;;;;;;;4.60;3.42;;;;;;;15.91;91.17;94623.00;5112282;27;20247;-76
2022/09/03 01:48:48;;;;;;;6.35;3.67;;;;;;;15.81;91.37;94607.22;5132144;27;20196;-75
2022/09/03 01:51:19;;;;;;;8.80;3.45;;;;;;;15.89;91.70;94611.66;5131397;27;20359;-76
2022/09/03 01:54:09;;;;;;;6.18;3.72;;;;;;;15.81;91.80;94599.81;5131893;27;20193;-76
2022/09/03 01:56:50;;;;;;;6.82;4.28;;;;;;;15.85;91.81;94602.63;5131706;27;20276;-76
2022/09/03 01:59:26;;;;;;;11.35;4.72;;;;;;;15.85;91.70;94608.09;5131748;27;20238;-76
2022/09/03 02:01:59;;;;;;;6.45;3.90;;;;;;;15.92;91.57;94613.66;5131850;27;20192;-76
2022/09/03 02:04:27;;;;;;;8.40;4.50;;;;;;;16.00;91.36;94609.91;5131093;27;20242;-76
2022/09/03 02:06:58;;;;;;;5.57;3.50;;;;;;;15.98;90.97;94601.31;5130351;27;20696;-75
2022/09/03 02:09:25;;;;;;;6.68;4.30;;;;;;;16.00;91.04;94612.63;5131543;27;20192;-76
2022/09/03 02:11:59;;;;;;;4.68;3.13;;;;;;;15.96;90.36;94609.06;5131592;27;20228;-76
2022/09/03 02:14:28;;;;;;;4.53;2.15;;;;;;;15.97;89.98;94616.13;5131218;27;20190;-74
2022/09/03 02:16:58;;;;;;;5.10;3.03;;;;;;;15.98;90.46;94617.69;5130553;27;20204;-77
2022/09/03 02:19:27;;;;;;;5.90;3.90;;;;;;;15.99;90.53;94624.72;5131493;27;20197;-77
2022/09/03 02:21:57;;;;;;;7.78;3.95;;;;;;;15.91;91.06;94623.00;5131617;27;20560;-77
2022/09/03 02:24:25;;;;;;;6.03;3.35;;;;;;;15.90;91.05;94615.97;5131045;27;20257;-76
2022/09/03 02:26:53;;;;;;;5.85;3.47;;;;;;;15.90;90.76;94616.75;5130867;27;20636;-76
2022/09/03 02:29:20;;;;;;;4.93;3.83;;;;;;;15.85;90.58;94621.75;5128888;28;20237;-76
2022/09/03 02:31:48;;;;;;;7.78;4.15;;;;;;;15.82;91.48;94619.72;5110231;28;20213;-74
2022/09/03 02:34:15;;;;;;;4.43;3.17;;;;;;;15.79;91.91;94623.19;5110404;28;20258;-77
2022/09/03 02:36:45;;;;;;;5.32;3.55;;;;;;;15.80;91.96;94624.75;5110043;28;20201;-76
2022/09/03 02:39:12;;;;;;;9.40;3.90;;;;;;;15.87;91.78;94633.06;5110726;28;20202;-75
2022/09/03 02:41:39;;;;;;;7.13;4.25;;;;;;;15.86;91.41;94626.03;5110445;28;20225;-76
2022/09/03 02:44:12;;;;;;;7.63;3.80;;;;;;;15.88;91.29;94629.19;5110443;28;20744;-76
2022/09/03 02:46:43;;;;;;;6.45;3.80;;;;;;;15.87;91.31;94628.41;5115888;28;20630;-76
2022/09/03 02:49:12;;;;;;;7.53;4.43;;;;;;;15.90;91.45;94632.34;5131395;28;20197;-77
2022/09/03 02:51:41;;;;;;;7.20;3.80;;;;;;;15.93;91.42;94632.44;5130988;28;20228;-77
2022/09/03 02:54:09;;;;;;;5.25;3.13;;;;;;;15.88;91.76;94631.94;5131021;28;20292;-75
2022/09/03 02:56:36;;;;;;;7.25;4.53;;;;;;;15.86;91.85;94636.97;5130671;28;20541;-76
2022/09/03 02:59:05;;;;;;;5.05;3.50;;;;;;;15.80;91.74;94641.16;5131235;28;20201;-74
2022/09/03 03:01:32;;;;;;;6.85;4.90;;;;;;;15.79;91.73;94647.75;5130993;28;20230;-75
2022/09/03 03:03:59;;;;;;;6.93;4.28;;;;;;;15.82;91.46;94633.38;5131178;28;20644;-76
2022/09/03 03:06:28;;;;;;;14.23;5.32;;;;;;;15.76;91.34;94635.59;5130160;27;20225;-76
2022/09/03 03:08:55;;;;;;;8.65;4.30;;;;;;;15.74;91.79;94634.38;5130613;28;20205;-74
2022/09/03 03:11:26;;;;;;;6.88;3.75;;;;;;;15.71;92.06;94637.84;5130876;28;20224;-75
2022/09/03 03:13:53;;;;;;;9.65;4.70;;;;;;;15.75;92.00;94633.22;5131023;28;20181;-76
2022/09/03 03:16:20;;;;;;;6.03;3.45;;;;;;;15.68;91.83;94635.84;5131527;27;20201;-76
2022/09/03 03:18:47;;;;;;;9.38;4.82;;;;;;;15.72;91.96;94631.22;5134323;27;20197;-76
2022/09/03 03:21:15;;;;;;;7.97;4.00;;;;;;;15.71;91.78;94635.13;5134307;27;20625;-76
2022/09/03 03:23:44;;;;;;;8.50;4.68;;;;;;;15.67;92.12;94629.56;5134857;27;20204;-76
2022/09/03 03:26:12;;;;;;;8.80;4.88;;;;;;;15.55;92.21;94627.78;5134419;27;20221;-77
2022/09/03 03:28:41;;;;;;;3.22;2.35;;;;;;;15.46;92.74;94629.09;5134631;27;20227;-74
2022/09/03 03:31:09;;;;;;;7.72;4.50;;;;;;;15.44;92.85;94637.66;5117066;27;20229;-75
2022/09/03 03:33:36;;;;;;;5.90;3.85;;;;;;;15.43;93.03;94638.81;5113387;28;20229;-76
2022/09/03 03:36:06;;;;;;;7.95;4.65;;;;;;;15.50;92.66;94638.94;5113352;28;20598;-76
2022/09/03 03:38:34;;;;;;;7.90;4.55;;;;;;;15.50;92.46;94641.69;5113339;28;20198;-75
2022/09/03 03:41:07;;;;;;;11.82;4.05;;;;;;;15.48;92.51;94635.78;5113394;28;20240;-76
2022/09/03 03:43:33;;;;;;;6.47;4.18;;;;;;;15.47;92.88;94636.13;5113817;28;20186;-76
2022/09/03 03:46:00;;;;;;;8.00;4.95;;;;;;;15.60;92.71;94640.34;5113874;27;20193;-76
2022/09/03 03:48:27;;;;;;;8.30;4.18;;;;;;;15.51;92.50;94640.53;5133758;27;20244;-76
2022/09/03 03:50:54;;;;;;;4.30;3.13;;;;;;;15.50;92.48;94641.69;5134088;27;20301;-76
2022/09/03 03:53:21;;;;;;;9.55;5.13;;;;;;;15.46;92.50;94626.38;5133478;27;20727;-77
2022/09/03 03:55:55;;;;;;;9.20;4.22;;;;;;;15.49;92.92;94634.63;5133670;27;20601;-76
2022/09/03 03:58:24;;;;;;;8.27;4.40;;;;;;;15.52;92.75;94639.38;5134249;27;20189;-74
2022/09/03 04:00:51;;;;;;;7.45;4.30;;;;;;;15.49;93.20;94640.09;5133974;27;20607;-77
2022/09/03 04:03:18;;;;;;;9.25;4.10;;;;;;;15.49;92.99;94642.81;5133928;27;20601;-77
2022/09/03 04:05:55;;;;;;;8.43;4.63;;;;;;;15.50;93.04;94641.69;5133358;27;20220;-76
2022/09/03 04:08:22;;;;;;;6.40;3.78;;;;;;;15.52;92.59;94639.38;5133385;27;20242;-75
2022/09/03 04:10:49;;;;;;;7.35;4.45;;;;;;;15.52;92.17;94644.06;5133476;27;20231;-75
2022/09/03 04:13:16;;;;;;;8.40;4.85;;;;;;;15.58;92.23;94640.69;5133309;27;20601;-76
2022/09/03 04:15:44;;;;;;;7.30;4.47;;;;;;;15.63;92.06;94637.69;5133571;27;20221;-76
2022/09/03 04:18:11;;;;;;;8.68;4.18;;;;;;;15.51;92.44;94632.34;5133274;27;20193;-77
2022/09/03 04:20:38;;;;;;;7.32;4.53;;;;;;;15.56;92.27;94634.81;5133606;27;20281;-77
2022/09/03 04:23:05;;;;;;;8.43;4.70;;;;;;;15.66;91.84;94636.19;5133251;27;20197;-76
2022/09/03 04:25:32;;;;;;;8.70;4.80;;;;;;;15.75;91.72;94641.44;5133273;27;20695;-77
2022/09/03 04:27:59;;;;;;;10.18;4.57;;;;;;;15.94;91.40;94644.94;5133259;27;20205;-77
2022/09/03 04:30:26;;;;;;;8.13;4.28;;;;;;;16.09;90.61;94646.00;5122119;27;20225;-77
2022/09/03 04:32:55;;;;;;;8.15;4.25;;;;;;;16.02;89.98;94651.31;5112571;28;20288;-76
2022/09/03 04:35:23;;;;;;;8.63;4.25;;;;;;;15.88;90.39;94642.84;5112679;28;20266;-76
2022/09/03 04:37:50;;;;;;;7.70;4.22;;;;;;;15.94;90.45;94652.34;5112661;28;20198;-76
2022/09/03 04:40:17;;;;;;;9.25;4.82;;;;;;;15.83;91.13;94656.81;5112414;28;20217;-77
2022/09/03 04:42:44;;;;;;;8.95;4.45;;;;;;;15.88;91.10;94667.44;5112414;28;20212;-76
2022/09/03 04:45:14;;;;;;;9.50;4.35;;;;;;;15.87;91.00;94671.31;5112603;28;20205;-77
2022/09/03 04:47:41;;;;;;;6.90;4.47;;;;;;;16.00;90.83;94675.50;5127164;27;20418;-78
2022/09/03 04:50:11;;;;;;;10.77;5.18;;;;;;;15.97;90.10;94670.75;5132261;27;20652;-76
2022/09/03 04:52:38;;;;;;;5.75;3.55;;;;;;;16.01;89.26;94677.06;5133198;27;20240;-75
2022/09/03 04:55:06;;;;;;;7.32;3.47;;;;;;;16.03;89.89;94691.16;5132602;27;20266;-76
2022/09/03 04:57:36;;;;;;;7.40;3.60;;;;;;;16.00;89.16;94691.88;5132391;27;20249;-73
2022/09/03 05:00:04;;;;;;;8.07;4.97;;;;;;;16.06;89.06;94690.47;5131686;27;20201;-74
2022/09/03 05:02:31;;;;;;;6.90;3.90;;;;;;;16.08;88.49;94693.63;5132024;27;20201;-75
2022/09/03 05:04:58;;;;;;;5.15;3.72;;;;;;;16.10;88.66;94693.25;5131859;27;20221;-75
2022/09/03 05:07:27;;;;;;;5.47;3.60;;;;;;;16.01;88.22;94698.94;5132830;27;20200;-75
2022/09/03 05:09:55;;;;;;;4.43;2.78;;;;;;;16.04;88.67;94690.03;5132083;27;20243;-74
2022/09/03 05:12:23;;;;;;;6.50;3.67;;;;;;;16.12;88.58;94697.22;5133021;27;20233;-73
2022/09/03 05:14:50;;;;;;;4.43;2.63;;;;;;;15.99;88.72;94696.56;5132156;27;20275;-75
2022/09/03 05:17:16;;;;;;;5.47;3.55;;;;;;;15.98;89.10;94696.94;5132150;27;20249;-75
2022/09/03 05:19:43;;;;;;;3.00;2.13;;;;;;;15.94;89.36;94699.59;5132114;27;20201;-74
2022/09/03 05:22:10;;;;;;;3.42;2.63;;;;;;;15.86;89.53;94691.59;5132327;27;20584;-75
2022/09/03 05:24:38;;;;;;;6.15;4.35;;;;;;;15.94;89.46;94690.59;5132095;27;20419;-77
2022/09/03 05:27:05;;;;;;;4.72;3.17;;;;;;;16.00;89.17;94675.50;5131853;27;20637;-76
2022/09/03 05:29:32;;;;;;;7.45;3.42;;;;;;;16.12;88.78;94694.50;5128642;27;20225;-75
2022/09/03 05:31:59;;;;;;;8.82;4.15;;;;;;;16.06;89.06;94685.00;5111935;28;20229;-77
2022/09/03 05:34:26;;;;;;;3.58;2.63;;;;;;;16.13;89.33;94690.56;5111733;28;20197;-73
2022/09/03 05:36:54;;;;;;;2.85;1.92;;;;;;;16.16;89.14;94689.88;5111519;28;20205;-72
2022/09/03 05:39:20;;;;;;;4.88;3.58;;;;;;;16.25;88.97;94700.59;5110833;28;20273;-77
2022/09/03 05:41:51;;;;;;;7.60;3.83;;;;;;;16.19;88.95;94696.56;5111399;28;20240;-76
2022/09/03 05:44:20;;;;;;;6.18;3.55;;;;;;;16.29;88.54;94699.50;5111051;28;20560;-78
2022/09/03 05:46:47;;;;;;;5.85;3.50;;;;;;;16.41;87.98;94701.25;5118053;27;20567;-77
2022/09/03 05:49:14;;;;;;;5.90;3.03;;;;;;;16.28;87.68;94708.84;5131734;27;20697;-76
2022/09/03 05:51:41;;;;;;;5.82;3.95;;;;;;;16.18;87.66;94709.44;5131251;27;20224;-76
2022/09/03 05:54:08;;;;;;;5.68;3.97;;;;;;;16.29;87.19;94707.69;5131903;27;20207;-75
2022/09/03 05:56:38;;;;;;;3.38;2.33;;;;;;;16.49;86.72;94713.13;5131597;27;20690;-76
2022/09/03 05:59:09;;;;;;;4.07;2.83;;;;;;;16.33;86.17;94716.75;5131614;27;20226;-76
2022/09/03 06:01:37;;;;;;;4.55;3.08;;;;;;;16.48;85.60;94708.81;5131718;27;20517;-79
2022/09/03 06:04:06;;;;;;;5.03;3.00;;;;;;;16.38;85.99;94703.94;5131848;27;20205;-76
2022/09/03 06:06:34;;;;;;;5.15;3.33;;;;;;;16.49;85.26;94719.41;5130797;27;20253;-78
2022/09/03 06:09:04;;;;;;;5.82;3.33;;;;;;;16.48;84.63;94722.50;5131152;27;20193;-76
2022/09/03 06:11:34;;;;;;;6.70;3.55;;;;;;;16.53;84.67;94719.47;5130831;27;20687;-77
2022/09/03 06:14:04;;;;;;;6.03;3.42;;;;;;;16.68;84.29;94721.31;5131410;27;20207;-76
2022/09/03 06:16:34;;;;;;;4.80;3.42;;;;;;;16.54;84.35;94715.56;5130667;27;20262;-76
2022/09/03 06:19:01;;;;;;;7.03;3.20;;;;;;;16.69;83.23;94717.44;5131354;27;20884;-77
2022/09/03 06:21:29;;;;;;;6.40;3.38;;;;;;;16.77;83.08;94716.41;5130752;27;20197;-78
2022/09/03 06:23:57;;;;;;;7.28;3.88;;;;;;;16.98;82.69;94719.50;5131556;27;20201;-77
2022/09/03 06:26:26;;;;;;;2.85;1.73;;;;;;;16.88;82.34;94720.13;5130956;27;20252;-78
2022/09/03 06:28:55;;;;;;;6.10;3.63;;;;;;;17.02;82.13;94720.34;5131630;28;20295;-78
2022/09/03 06:31:23;;;;;;;4.10;3.10;;;;;;;17.43;79.86;94723.34;5112338;28;20320;-77
2022/09/03 06:33:51;;;;;;;6.05;3.40;;;;;;;17.67;79.12;94717.47;5110671;28;20197;-76
2022/09/03 06:36:20;;;;;;;5.18;3.53;;;;;;;18.07;78.37;94735.22;5110827;28;20250;-77
2022/09/03 06:38:47;;;;;;;5.00;3.30;;;;;;;18.35;77.24;94730.06;5110524;28;20609;-77
2022/09/03 06:41:18;;;;;;;4.55;3.70;;;;;;;17.64;78.61;94731.91;5110269;28;20221;-74
2022/09/03 06:43:45;;;;;;;6.05;4.18;;;;;;;17.69;79.23;94720.63;5110756;28;20292;-77
2022/09/03 06:46:14;;;;;;;6.75;3.05;;;;;;;17.64;78.47;94718.19;5111897;28;20656;-76
2022/09/03 06:48:41;;;;;;;7.32;3.95;;;;;;;17.72;78.33;94735.53;5131484;28;20197;-77
2022/09/03 06:51:11;;;;;;;7.40;3.97;;;;;;;18.14;77.40;94729.84;5132153;27;20707;-78
2022/09/03 06:53:40;;;;;;;6.20;3.35;;;;;;;18.16;76.65;94730.25;5135181;27;20201;-77
2022/09/03 06:56:09;;;;;;;5.10;3.47;;;;;;;18.32;76.13;94727.28;5134996;27;20236;-77
2022/09/03 06:58:41;;;;;;;4.22;3.05;;;;;;;18.80;74.28;94733.72;5134977;27;20544;-78
2022/09/03 07:01:11;;;;;;;4.90;3.20;;;;;;;19.51;71.81;94726.13;5135231;27;20185;-76
2022/09/03 07:03:39;;;;;;;4.32;2.90;;;;;;;19.34;71.35;94729.50;5135027;27;20197;-78
2022/09/03 07:06:08;;;;;;;3.88;2.53;;;;;;;18.84;72.30;94733.78;5134966;27;20269;-78
2022/09/03 07:08:37;;;;;;;5.55;3.65;;;;;;;18.67;73.17;94735.94;5134991;27;20648;-78
2022/09/03 07:11:08;;;;;;;2.72;1.80;;;;;;;18.56;74.39;94745.22;5134616;27;20205;-78
2022/09/03 07:13:35;;;;;;;6.65;3.67;;;;;;;19.20;72.86;94745.84;5134551;27;20583;-78
2022/09/03 07:16:03;;;;;;;5.43;2.40;;;;;;;18.66;74.15;94747.31;5134305;27;20601;-75
2022/09/03 07:18:30;;;;;;;7.22;5.15;;;;;;;19.16;73.36;94746.59;5134279;27;20254;-77
2022/09/03 07:21:01;;;;;;;3.10;2.70;;;;;;;19.47;71.71;94745.31;5134914;27;20287;-76
2022/09/03 07:23:31;;;;;;;6.07;4.72;;;;;;;20.64;68.27;94741.66;5134507;27;20201;-77
2022/09/03 07:26:02;;;;;;;4.47;3.25;;;;;;;21.78;64.25;94735.06;5133983;27;20227;-79
2022/09/03 07:28:30;;;;;;;4.72;3.20;;;;;;;22.14;62.78;94733.03;5133855;27;20574;-79
2022/09/03 07:31:04;;;;;;;4.13;2.97;;;;;;;21.98;63.10;94747.25;5118455;27;20221;-78
2022/09/03 07:33:31;;;;;;;4.75;3.20;;;;;;;21.49;64.92;94747.28;5113515;28;20225;-77
2022/09/03 07:36:03;;;;;;;7.22;4.00;;;;;;;20.85;65.71;94749.97;5114122;28;20198;-78
2022/09/03 07:38:29;;;;;;;4.72;3.60;;;;;;;20.74;64.99;94749.16;5114241;28;20190;-75
2022/09/03 07:40:59;;;;;;;7.10;3.72;;;;;;;20.72;66.35;94751.50;5113957;28;20274;-77
2022/09/03 07:43:28;;;;;;;4.15;3.47;;;;;;;20.67;66.27;94758.16;5113612;28;20280;-75
2022/09/03 07:45:56;;;;;;;5.28;3.90;;;;;;;20.06;68.42;94757.09;5113386;28;20288;-74
2022/09/03 07:48:24;;;;;;;5.75;4.72;;;;;;;20.35;67.75;94760.78;5113542;28;20228;-76
2022/09/03 07:50:51;;;;;;;5.85;4.65;;;;;;;20.91;67.53;94754.69;5113682;28;20648;-78
2022/09/03 07:53:19;;;;;;;5.00;3.30;;;;;;;20.69;66.93;94746.78;5113435;28;20232;-78
2022/09/03 07:55:46;;;;;;;6.22;3.10;;;;;;;20.79;66.33;94763.31;5113240;28;20197;-78
2022/09/03 07:58:13;;;;;;;5.70;4.30;;;;;;;20.48;67.01;94764.03;5113563;28;20202;-77
2022/09/03 08:00:41;;;;;;;5.95;4.28;;;;;;;20.67;67.14;94762.88;5113488;28;20593;-78
2022/09/03 08:03:08;;;;;;;4.45;3.33;;;;;;;20.10;68.87;94776.34;5113175;28;20201;-79
2022/09/03 08:05:37;;;;;;;4.55;3.38;;;;;;;20.37;67.68;94769.44;5113086;28;20226;-76
2022/09/03 08:08:04;;;;;;;4.88;3.28;;;;;;;20.47;67.04;94767.94;5113616;28;20201;-77
2022/09/03 08:10:31;;;;;;;6.55;3.72;;;;;;;20.39;68.36;94772.59;5113386;28;20208;-77
2022/09/03 08:12:58;;;;;;;3.75;3.33;;;;;;;19.73;69.99;94774.56;5113012;28;20260;-78
2022/09/03 08:15:26;;;;;;;6.05;3.35;;;;;;;19.96;69.13;94777.06;5113074;28;20294;-79
2022/09/03 08:17:54;;;;;;;5.68;4.10;;;;;;;20.76;68.08;94763.31;5113124;28;20277;-78
2022/09/03 08:20:21;;;;;;;4.43;3.13;;;;;;;21.31;64.58;94763.06;5113016;28;20266;-78
2022/09/03 08:22:48;;;;;;;5.72;4.25;;;;;;;21.22;64.53;94764.22;5113162;28;20651;-76
2022/09/03 08:25:15;;;;;;;3.90;3.00;;;;;;;20.55;66.93;94775.84;5112652;28;20296;-78
2022/09/03 08:27:42;;;;;;;4.50;4.10;;;;;;;20.58;66.63;94769.56;5112391;28;20206;-78
2022/09/03 08:30:10;;;;;;;9.18;4.50;;;;;;;21.42;66.19;94758.34;5120291;27;20255;-78
2022/09/03 08:32:37;;;;;;;4.28;3.15;;;;;;;21.10;65.68;94772.03;5132667;27;20244;-77
2022/09/03 08:35:06;;;;;;;5.22;4.20;;;;;;;20.97;65.71;94768.09;5132861;27;20197;-79
2022/09/03 08:37:33;;;;;;;4.97;4.38;;;;;;;21.22;64.72;94764.22;5132974;27;20201;-79
2022/09/03 08:40:00;;;;;;;5.78;3.88;;;;;;;21.62;64.06;94765.00;5133066;27;20221;-79
2022/09/03 08:42:49;;;;;;;4.85;3.83;;;;;;;22.41;61.48;94754.66;5132846;27;20242;-78
2022/09/03 08:45:20;;;;;;;6.05;4.25;;;;;;;22.13;61.43;94756.31;5132717;27;20238;-75
2022/09/03 08:47:51;;;;;;;5.13;4.35;;;;;;;21.59;63.83;94760.31;5117331;27;20215;-76
2022/09/03 08:50:25;;;;;;;7.20;4.80;;;;;;;21.71;63.93;94757.16;5111787;28;20220;-77
2022/09/03 08:52:58;;;;;;;5.28;4.18;;;;;;;21.02;65.32;94757.47;5111815;28;20413;-78
2022/09/03 08:55:27;;;;;;;4.85;4.30;;;;;;;21.50;64.66;94762.66;5112031;28;20564;-78
2022/09/03 08:58:05;;;;;;;2.55;2.30;;;;;;;20.64;66.04;94771.94;5111795;28;20209;-77
2022/09/03 09:00:42;;;;;;;5.32;3.63;;;;;;;20.87;66.27;94764.13;5112497;28;20250;-78
2022/09/03 09:03:31;;;;;;;5.13;4.25;;;;;;;21.14;65.02;94767.34;5112387;28;20185;-78
2022/09/03 09:06:11;;;;;;;4.10;3.20;;;;;;;21.20;64.83;94761.06;5111931;28;20723;-79
2022/09/03 09:08:46;;;;;;;4.10;3.40;;;;;;;21.32;65.44;94762.63;5112480;28;20182;-79
2022/09/03 09:11:24;;;;;;;3.45;3.00;;;;;;;21.20;64.78;94772.09;5112182;28;20246;-78
2022/09/03 09:13:58;;;;;;;4.00;3.47;;;;;;;21.35;63.92;94769.34;5110869;28;20266;-79
2022/09/03 09:16:35;;;;;;;4.28;3.65;;;;;;;21.42;64.64;94772.13;5111205;28;20196;-79
2022/09/03 09:19:17;;;;;;;4.40;4.00;;;;;;;20.98;64.89;94770.44;5112115;28;20181;-79
2022/09/03 09:21:51;;;;;;;4.10;3.30;;;;;;;20.90;65.19;94764.16;5111623;28;20200;-79
2022/09/03 09:24:22;;;;;;;4.05;3.65;;;;;;;21.51;65.19;94769.75;5112101;28;20217;-79
2022/09/03 09:26:51;;;;;;;5.13;4.45;;;;;;;22.12;63.59;94776.03;5111466;28;20228;-77
2022/09/03 09:29:18;;;;;;;5.85;4.30;;;;;;;21.35;64.31;94769.34;5112305;27;20204;-79
2022/09/03 09:31:45;;;;;;;5.07;4.47;;;;;;;20.86;66.11;94779.09;5132030;27;20527;-79
2022/09/03 09:34:12;;;;;;;7.63;4.40;;;;;;;21.23;65.85;94779.56;5132473;27;20265;-78
2022/09/03 09:36:45;;;;;;;5.10;4.15;;;;;;;21.84;63.25;94776.84;5131906;27;20201;-79
2022/09/03 09:39:15;;;;;;;4.35;3.88;;;;;;;21.48;63.89;94776.03;5132393;27;20191;-79
2022/09/03 09:41:42;;;;;;;4.68;4.25;;;;;;;21.57;63.53;94779.22;5131731;27;20287;-79
2022/09/03 09:44:19;;;;;;;5.07;4.18;;;;;;;22.17;61.97;94767.31;5132217;27;20209;-78
2022/09/03 09:46:47;;;;;;;4.80;4.15;;;;;;;22.81;60.05;94767.13;5124293;27;20644;-79
2022/09/03 09:49:31;;;;;;;5.38;4.57;;;;;;;22.27;61.06;94772.06;5111448;28;20197;-79
2022/09/03 09:52:03;;;;;;;7.65;4.80;;;;;;;22.69;60.59;94766.34;5111416;28;20268;-78
2022/09/03 09:54:31;;;;;;;4.65;4.22;;;;;;;23.60;59.38;94762.69;5111260;28;20274;-79
2022/09/03 09:57:04;;;;;;;9.85;5.00;;;;;;;24.04;56.88;94776.53;5110106;28;20209;-79
2022/09/03 09:59:32;;;;;;;5.63;4.13;;;;;;;24.03;57.09;94774.94;5110242;28;20621;-79
2022/09/03 10:02:11;;;;;;;5.82;4.22;;;;;;;24.72;57.02;94775.81;5110191;28;20201;-79
2022/09/03 10:04:39;;;;;;;6.07;4.15;;;;;;;24.50;54.51;94769.72;5110924;28;20222;-79
2022/09/03 10:07:24;;;;;;;4.70;4.22;;;;;;;23.45;58.63;94766.72;5110783;28;20206;-78
2022/09/03 10:10:06;;;;;;;5.22;4.05;;;;;;;22.33;61.45;94773.19;5110967;28;20208;-77
2022/09/03 10:12:38;;;;;;;5.20;4.35;;;;;;;21.41;63.93;94771.31;5111380;28;20218;-76
2022/09/03 10:15:16;;;;;;;5.35;4.85;;;;;;;22.21;62.90;94779.16;5111066;28;20289;-78
2022/09/03 10:17:52;;;;;;;4.90;4.38;;;;;;;22.63;61.66;94779.00;5110195;28;20186;-78
2022/09/03 10:20:29;;;;;;;5.30;4.47;;;;;;;23.01;60.46;94759.91;5110875;28;20239;-77
2022/09/03 10:23:00;;;;;;;7.22;4.93;;;;;;;23.35;59.34;94762.84;5110921;28;20201;-76
2022/09/03 10:25:38;;;;;;;5.70;4.78;;;;;;;23.08;60.51;94764.59;5110175;28;20570;-80
2022/09/03 10:28:06;;;;;;;6.20;4.68;;;;;;;22.19;62.52;94767.72;5110719;28;20632;-74
2022/09/03 10:30:50;;;;;;;5.13;4.57;;;;;;;21.96;62.99;94763.41;5121894;28;20213;-77
2022/09/03 10:33:24;;;;;;;4.97;4.45;;;;;;;22.37;62.43;94760.19;5131378;28;20221;-79
2022/09/03 10:35:57;;;;;;;6.45;5.03;;;;;;;22.37;61.96;94762.16;5131225;28;20614;-76
2022/09/03 10:38:29;;;;;;;5.18;4.68;;;;;;;23.03;59.64;94752.00;5131082;28;20700;-77
2022/09/03 10:41:12;;;;;;;5.70;5.10;;;;;;;22.40;61.51;94748.34;5131205;27;20220;-78
2022/09/03 10:43:58;;;;;;;4.25;3.70;;;;;;;22.19;62.43;94751.16;5130983;28;20808;-75
2022/09/03 10:46:27;;;;;;;5.93;5.25;;;;;;;22.57;62.47;94763.25;5126994;28;20597;-79
2022/09/03 10:49:17;;;;;;;4.88;4.38;;;;;;;22.78;60.67;94756.88;5110249;28;20729;-78
2022/09/03 10:51:54;;;;;;;4.82;4.32;;;;;;;22.43;61.40;94755.81;5110505;28;20210;-77
2022/09/03 10:54:37;;;;;;;4.57;4.18;;;;;;;22.89;60.12;94757.59;5109956;28;20410;-76
2022/09/03 10:57:12;;;;;;;5.00;4.07;;;;;;;22.31;61.11;94761.75;5110638;28;20244;-75
2022/09/03 10:59:54;;;;;;;4.35;3.95;;;;;;;22.32;60.94;94755.06;5110679;28;20247;-77
2022/09/03 11:02:48;;;;;;;5.85;4.78;;;;;;;21.91;61.75;94758.28;5110000;28;20238;-75
2022/09/03 11:05:19;;;;;;;3.60;3.20;;;;;;;22.09;61.34;94760.25;5110204;28;20304;-78
2022/09/03 11:07:51;;;;;;;3.85;3.20;;;;;;;22.20;61.83;94758.25;5110484;28;20207;-75
2022/09/03 11:10:23;;;;;;;5.80;4.03;;;;;;;22.28;60.88;94754.28;5110753;28;20456;-78
2022/09/03 11:13:03;;;;;;;3.70;3.30;;;;;;;22.14;60.98;94757.09;5110507;28;20301;-76
2022/09/03 11:15:34;;;;;;;5.25;4.00;;;;;;;22.30;61.11;94760.19;5110200;28;20639;-71
2022/09/03 11:18:07;;;;;;;3.88;3.38;;;;;;;22.02;61.24;94769.31;5109485;28;20211;-73
2022/09/03 11:20:35;;;;;;;5.63;3.88;;;;;;;22.19;62.36;94770.47;5109850;28;20197;-77
2022/09/03 11:23:06;;;;;;;5.18;4.63;;;;;;;22.21;60.67;94773.63;5109675;28;20201;-76
2022/09/03 11:25:36;;;;;;;4.93;3.83;;;;;;;22.42;61.32;94765.28;5109474;28;20275;-78
2022/09/03 11:28:13;;;;;;;4.18;3.78;;;;;;;22.69;60.29;94760.81;5110209;28;20209;-78
2022/09/03 11:30:56;;;;;;;5.72;4.05;;;;;;;22.37;61.41;94753.88;5122798;28;20607;-76
2022/09/03 11:33:26;;;;;;;4.05;3.65;;;;;;;22.30;61.75;94749.16;5129898;28;20213;-75
2022/09/03 11:35:59;;;;;;;4.35;3.95;;;;;;;22.50;60.86;94753.03;5131246;27;20193;-77
2022/09/03 11:38:29;;;;;;;4.35;3.95;;;;;;;22.41;61.22;94749.91;5134097;27;20532;-76
2022/09/03 11:41:03;;;;;;;4.63;4.22;;;;;;;22.52;61.23;94750.66;5134680;27;20223;-75
2022/09/03 11:43:33;;;;;;;5.25;4.22;;;;;;;22.34;61.79;94760.97;5134464;27;20254;-78
2022/09/03 11:46:11;;;;;;;4.35;3.78;;;;;;;22.26;62.06;94762.97;5134388;27;20193;-73
2022/09/03 11:48:42;;;;;;;4.95;4.45;;;;;;;22.17;61.20;94750.75;5113461;28;20193;-75
2022/09/03 11:51:32;;;;;;;4.63;4.07;;;;;;;22.39;60.97;94751.50;5114004;28;20194;-77
2022/09/03 11:54:01;;;;;;;4.57;4.18;;;;;;;22.82;60.42;94757.66;5113589;28;20301;-77